sensor_id;sensor_type;location;lat;lon;timestamp;pressure;altitude;pressure_sealevel;temperature;humidity
35443;BME280;21561;55.654;37.592;2023-01-28T00:00:50;99991.88;;;-1.80;100.00
35443;BME280;21561;55.654;37.592;2023-01-28T00:03:17;99986.53;;;-1.86;100.00
35443;BME280;21561;55.654;37.592;2023-01-28T00:05:44;99994.81;;;-1.90;100.00
35443;BME280;21561;55.654;37.592;2023-01-28T00:08:11;99987.19;;;-1.90;100.00
35443;BME280;21561;55.654;37.592;2023-01-28T00:10:40;99991.19;;;-1.95;100.00
35443;BME280;21561;55.654;37.592;2023-01-28T00:13:11;99982.59;;;-1.97;100.00
35443;BME280;21561;55.654;37.592;2023-01-28T00:15:40;99987.69;;;-1.97;100.00
35443;BME280;21561;55.654;37.592;2023-01-28T00:18:07;99984.63;;;-2.08;100.00
35443;BME280;21561;55.654;37.592;2023-01-28T00:20:34;99978.53;;;-2.12;100.00
35443;BME280;21561;55.654;37.592;2023-01-28T00:23:01;99985.31;;;-2.11;100.00
35443;BME280;21561;55.654;37.592;2023-01-28T00:25:28;99985.41;;;-2.09;100.00
35443;BME280;21561;55.654;37.592;2023-01-28T00:27:55;99982.88;;;-2.09;100.00
35443;BME280;21561;55.654;37.592;2023-01-28T00:30:22;99984.63;;;-2.08;100.00
35443;BME280;21561;55.654;37.592;2023-01-28T00:32:49;99982.00;;;-2.09;100.00
35443;BME280;21561;55.654;37.592;2023-01-28T00:35:16;99982.78;;;-2.11;100.00
35443;BME280;21561;55.654;37.592;2023-01-28T00:37:44;99988.97;;;-2.05;100.00
35443;BME280;21561;55.654;37.592;2023-01-28T00:40:12;99994.72;;;-2.09;100.00
35443;BME280;21561;55.654;37.592;2023-01-28T00:42:39;99998.69;;;-2.15;100.00
35443;BME280;21561;55.654;37.592;2023-01-28T00:45:07;99991.06;;;-2.15;100.00
35443;BME280;21561;55.654;37.592;2023-01-28T00:47:34;100005.22;;;-2.20;100.00
35443;BME280;21561;55.654;37.592;2023-01-28T00:50:02;99998.88;;;-2.28;100.00
35443;BME280;21561;55.654;37.592;2023-01-28T00:52:28;99998.09;;;-2.27;100.00
35443;BME280;21561;55.654;37.592;2023-01-28T00:54:55;100010.97;;;-2.24;100.00
35443;BME280;21561;55.654;37.592;2023-01-28T00:57:22;100008.34;;;-2.25;100.00
35443;BME280;21561;55.654;37.592;2023-01-28T00:59:49;100009.13;;;-2.26;100.00
35443;BME280;21561;55.654;37.592;2023-01-28T01:02:16;100008.09;;;-2.30;100.00
35443;BME280;21561;55.654;37.592;2023-01-28T01:04:43;100006.03;;;-2.37;100.00
35443;BME280;21561;55.654;37.592;2023-01-28T01:07:21;100007.47;;;-2.42;100.00
35443;BME280;21561;55.654;37.592;2023-01-28T01:09:58;99999.72;;;-2.45;100.00
35443;BME280;21561;55.654;37.592;2023-01-28T01:12:27;100007.19;;;-2.48;100.00
35443;BME280;21561;55.654;37.592;2023-01-28T01:14:55;100006.41;;;-2.47;100.00
35443;BME280;21561;55.654;37.592;2023-01-28T01:17:22;100009.06;;;-2.44;100.00
35443;BME280;21561;55.654;37.592;2023-01-28T01:19:49;100007.34;;;-2.45;100.00
35443;BME280;21561;55.654;37.592;2023-01-28T01:22:16;100008.94;;;-2.47;100.00
35443;BME280;21561;55.654;37.592;2023-01-28T01:24:43;100007.34;;;-2.45;100.00
35443;BME280;21561;55.654;37.592;2023-01-28T01:27:09;100005.41;;;-2.50;100.00
35443;BME280;21561;55.654;37.592;2023-01-28T01:29:36;100007.00;;;-2.52;100.00
35443;BME280;21561;55.654;37.592;2023-01-28T01:32:04;100002.81;;;-2.51;100.00
35443;BME280;21561;55.654;37.592;2023-01-28T01:34:32;100007.75;;;-2.54;100.00
35443;BME280;21561;55.654;37.592;2023-01-28T01:36:58;100005.84;;;-2.58;100.00
35443;BME280;21561;55.654;37.592;2023-01-28T01:39:25;100003.22;;;-2.60;100.00
35443;BME280;21561;55.654;37.592;2023-01-28T01:41:52;99997.97;;;-2.63;100.00
35443;BME280;21561;55.654;37.592;2023-01-28T01:47:38;99994.66;;;-2.62;100.00
35443;BME280;21561;55.654;37.592;2023-01-28T01:52:59;99998.72;;;-2.65;100.00
35443;BME280;21561;55.654;37.592;2023-01-28T01:55:30;99997.72;;;-2.67;100.00
35443;BME280;21561;55.654;37.592;2023-01-28T01:58:07;100001.94;;;-2.68;100.00
35443;BME280;21561;55.654;37.592;2023-01-28T02:00:35;99997.34;;;-2.75;100.00
35443;BME280;21561;55.654;37.592;2023-01-28T02:03:02;99999.66;;;-2.80;100.00
35443;BME280;21561;55.654;37.592;2023-01-28T02:05:29;100002.91;;;-2.82;100.00
35443;BME280;21561;55.654;37.592;2023-01-28T02:07:57;100006.00;;;-2.88;100.00
35443;BME280;21561;55.654;37.592;2023-01-28T02:10:49;100006.63;;;-2.92;100.00
35443;BME280;21561;55.654;37.592;2023-01-28T02:13:21;100007.41;;;-2.93;100.00
35443;BME280;21561;55.654;37.592;2023-01-28T02:15:48;100009.88;;;-2.95;100.00
35443;BME280;21561;55.654;37.592;2023-01-28T02:18:16;100010.81;;;-2.93;100.00
35443;BME280;21561;55.654;37.592;2023-01-28T02:21:14;100005.13;;;-2.89;100.00
35443;BME280;21561;55.654;37.592;2023-01-28T02:32:24;100015.28;;;-2.89;100.00
35443;BME280;21561;55.654;37.592;2023-01-28T02:35:14;100012.66;;;-2.90;100.00
35443;BME280;21561;55.654;37.592;2023-01-28T02:38:07;100013.63;;;-2.88;100.00
35443;BME280;21561;55.654;37.592;2023-01-28T02:40:38;100014.94;;;-2.95;100.00
35443;BME280;21561;55.654;37.592;2023-01-28T02:43:33;100016.22;;;-3.03;100.00
35443;BME280;21561;55.654;37.592;2023-01-28T02:46:18;100018.50;;;-3.08;100.00
35443;BME280;21561;55.654;37.592;2023-01-28T02:49:15;100020.34;;;-3.05;100.00
35443;BME280;21561;55.654;37.592;2023-01-28T02:52:24;100022.91;;;-3.05;100.00
35443;BME280;21561;55.654;37.592;2023-01-28T03:01:21;100034.78;;;-3.04;100.00
35443;BME280;21561;55.654;37.592;2023-01-28T03:04:03;100030.66;;;-3.02;100.00
35443;BME280;21561;55.654;37.592;2023-01-28T03:06:38;100039.00;;;-3.04;100.00
35443;BME280;21561;55.654;37.592;2023-01-28T03:09:09;100036.47;;;-3.04;100.00
35443;BME280;21561;55.654;37.592;2023-01-28T03:11:56;100042.41;;;-3.04;100.00
35443;BME280;21561;55.654;37.592;2023-01-28T03:14:50;100040.72;;;-3.03;100.00
35443;BME280;21561;55.654;37.592;2023-01-28T03:23:56;100045.41;;;-3.11;100.00
35443;BME280;21561;55.654;37.592;2023-01-28T03:26:53;100045.41;;;-3.11;100.00
35443;BME280;21561;55.654;37.592;2023-01-28T03:29:41;100041.91;;;-3.13;100.00
35443;BME280;21561;55.654;37.592;2023-01-28T03:32:30;100042.78;;;-3.13;100.00
35443;BME280;21561;55.654;37.592;2023-01-28T03:35:17;100044.63;;;-3.10;100.00
35443;BME280;21561;55.654;37.592;2023-01-28T03:38:04;100051.44;;;-3.09;100.00
35443;BME280;21561;55.654;37.592;2023-01-28T03:40:58;100047.47;;;-3.04;100.00
35443;BME280;21561;55.654;37.592;2023-01-28T03:43:30;100043.72;;;-3.11;100.00
35443;BME280;21561;55.654;37.592;2023-01-28T03:45:57;100051.13;;;-3.15;100.00
35443;BME280;21561;55.654;37.592;2023-01-28T03:48:26;100053.81;;;-3.12;100.00
35443;BME280;21561;55.654;37.592;2023-01-28T03:50:54;100054.28;;;-3.19;100.00
35443;BME280;21561;55.654;37.592;2023-01-28T03:53:21;100042.38;;;-3.20;100.00
35443;BME280;21561;55.654;37.592;2023-01-28T03:55:50;100038.00;;;-3.23;100.00
35443;BME280;21561;55.654;37.592;2023-01-28T03:58:19;100038.88;;;-3.22;100.00
35443;BME280;21561;55.654;37.592;2023-01-28T04:00:46;100043.97;;;-3.22;100.00
35443;BME280;21561;55.654;37.592;2023-01-28T04:03:15;100045.00;;;-3.19;100.00
35443;BME280;21561;55.654;37.592;2023-01-28T04:05:44;100037.22;;;-3.22;100.00
35443;BME280;21561;55.654;37.592;2023-01-28T04:08:12;100035.78;;;-3.17;100.00
35443;BME280;21561;55.654;37.592;2023-01-28T04:10:40;100037.38;;;-3.19;100.00
35443;BME280;21561;55.654;37.592;2023-01-28T04:13:07;100042.38;;;-3.20;100.00
35443;BME280;21561;55.654;37.592;2023-01-28T04:15:33;100037.47;;;-3.17;100.00
35443;BME280;21561;55.654;37.592;2023-01-28T04:18:02;100039.06;;;-3.19;100.00
35443;BME280;21561;55.654;37.592;2023-01-28T04:20:29;100041.59;;;-3.19;100.00
35443;BME280;21561;55.654;37.592;2023-01-28T04:22:56;100038.16;;;-3.20;100.00
35443;BME280;21561;55.654;37.592;2023-01-28T04:25:23;100043.97;;;-3.22;100.00
35443;BME280;21561;55.654;37.592;2023-01-28T04:27:50;100042.06;;;-3.27;100.00
35443;BME280;21561;55.654;37.592;2023-01-28T04:30:17;100040.28;;;-3.28;100.00
35443;BME280;21561;55.654;37.592;2023-01-28T04:32:45;100043.00;;;-3.24;100.00
35443;BME280;21561;55.654;37.592;2023-01-28T04:35:12;100038.47;;;-3.30;100.00
35443;BME280;21561;55.654;37.592;2023-01-28T04:37:41;100035.69;;;-3.35;100.00
35443;BME280;21561;55.654;37.592;2023-01-28T04:40:09;100043.28;;;-3.35;100.00
35443;BME280;21561;55.654;37.592;2023-01-28T04:42:36;100050.81;;;-3.36;100.00
35443;BME280;21561;55.654;37.592;2023-01-28T04:45:04;100045.03;;;-3.34;100.00
35443;BME280;21561;55.654;37.592;2023-01-28T04:47:31;100038.03;;;-3.38;100.00
35443;BME280;21561;55.654;37.592;2023-01-28T04:49:58;100043.91;;;-3.39;100.00
35443;BME280;21561;55.654;37.592;2023-01-28T04:52:25;100049.94;;;-3.37;100.00
35443;BME280;21561;55.654;37.592;2023-01-28T04:54:52;100053.44;;;-3.35;100.00
35443;BME280;21561;55.654;37.592;2023-01-28T04:57:18;100047.31;;;-3.38;100.00
35443;BME280;21561;55.654;37.592;2023-01-28T04:59:45;100052.56;;;-3.35;100.00
35443;BME280;21561;55.654;37.592;2023-01-28T05:02:12;100053.44;;;-3.35;100.00
35443;BME280;21561;55.654;37.592;2023-01-28T05:04:39;100063.59;;;-3.35;100.00
35443;BME280;21561;55.654;37.592;2023-01-28T05:07:06;100059.47;;;-3.33;100.00
35443;BME280;21561;55.654;37.592;2023-01-28T05:09:33;100066.38;;;-3.30;100.00
35443;BME280;21561;55.654;37.592;2023-01-28T05:12:00;100068.94;;;-3.30;100.00
35443;BME280;21561;55.654;37.592;2023-01-28T05:14:27;100069.16;;;-3.26;100.00
35443;BME280;21561;55.654;37.592;2023-01-28T05:16:53;100064.25;;;-3.22;100.00
35443;BME280;21561;55.654;37.592;2023-01-28T05:19:20;100064.34;;;-3.21;100.00
35443;BME280;21561;55.654;37.592;2023-01-28T05:21:47;100071.25;;;-3.18;100.00
35443;BME280;21561;55.654;37.592;2023-01-28T05:24:14;100081.75;;;-3.12;100.00
35443;BME280;21561;55.654;37.592;2023-01-28T05:26:41;100076.22;;;-3.05;100.00
35443;BME280;21561;55.654;37.592;2023-01-28T05:29:08;100079.06;;;-2.99;100.00
35443;BME280;21561;55.654;37.592;2023-01-28T05:31:35;100080.97;;;-2.95;100.00
35443;BME280;21561;55.654;37.592;2023-01-28T05:34:02;100075.28;;;-2.91;100.00
35443;BME280;21561;55.654;37.592;2023-01-28T05:36:29;100069.41;;;-2.90;100.00
35443;BME280;21561;55.654;37.592;2023-01-28T05:38:56;100076.25;;;-2.89;100.00
35443;BME280;21561;55.654;37.592;2023-01-28T05:41:23;100072.03;;;-2.88;100.00
35443;BME280;21561;55.654;37.592;2023-01-28T05:43:49;100076.38;;;-2.85;100.00
35443;BME280;21561;55.654;37.592;2023-01-28T05:46:16;100073.78;;;-2.87;100.00
35443;BME280;21561;55.654;37.592;2023-01-28T05:48:43;100071.63;;;-2.96;100.00
35443;BME280;21561;55.654;37.592;2023-01-28T05:51:11;100068.75;;;-3.02;100.00
35443;BME280;21561;55.654;37.592;2023-01-28T05:53:38;100069.28;;;-3.08;100.00
35443;BME280;21561;55.654;37.592;2023-01-28T05:56:05;100072.47;;;-3.12;100.00
35443;BME280;21561;55.654;37.592;2023-01-28T05:58:32;100070.63;;;-3.14;100.00
35443;BME280;21561;55.654;37.592;2023-01-28T06:00:59;100077.44;;;-3.13;100.00
35443;BME280;21561;55.654;37.592;2023-01-28T06:03:25;100086.66;;;-3.15;100.00
35443;BME280;21561;55.654;37.592;2023-01-28T06:05:52;100079.50;;;-3.22;100.00
35443;BME280;21561;55.654;37.592;2023-01-28T06:08:19;100092.00;;;-3.26;100.00
35443;BME280;21561;55.654;37.592;2023-01-28T06:10:46;100092.97;;;-3.23;100.00
35443;BME280;21561;55.654;37.592;2023-01-28T06:13:13;100094.09;;;-3.18;100.00
35443;BME280;21561;55.654;37.592;2023-01-28T06:15:40;100088.38;;;-3.14;100.00
35443;BME280;21561;55.654;37.592;2023-01-28T06:18:07;100089.41;;;-3.11;100.00
35443;BME280;21561;55.654;37.592;2023-01-28T06:20:34;100093.81;;;-3.08;100.00
35443;BME280;21561;55.654;37.592;2023-01-28T06:23:01;100104.16;;;-3.05;100.00
35443;BME280;21561;55.654;37.592;2023-01-28T06:25:28;100102.09;;;-2.96;100.00
35443;BME280;21561;55.654;37.592;2023-01-28T06:27:54;100106.53;;;-2.92;100.00
35443;BME280;21561;55.654;37.592;2023-01-28T06:30:21;100104.97;;;-2.90;100.00
35443;BME280;21561;55.654;37.592;2023-01-28T06:32:55;100097.59;;;-2.85;100.00
35443;BME280;21561;55.654;37.592;2023-01-28T06:35:23;100099.38;;;-2.99;100.00
35443;BME280;21561;55.654;37.592;2023-01-28T06:37:50;100095.72;;;-3.04;100.00
35443;BME280;21561;55.654;37.592;2023-01-28T06:40:18;100101.25;;;-3.11;100.00
35443;BME280;21561;55.654;37.592;2023-01-28T06:42:45;100100.31;;;-3.13;100.00
35443;BME280;21561;55.654;37.592;2023-01-28T06:45:12;100101.06;;;-3.14;100.00
35443;BME280;21561;55.654;37.592;2023-01-28T06:47:39;100097.03;;;-3.11;100.00
35443;BME280;21561;55.654;37.592;2023-01-28T06:50:06;100099.75;;;-3.08;100.00
35443;BME280;21561;55.654;37.592;2023-01-28T06:52:33;100102.38;;;-3.06;100.00
35443;BME280;21561;55.654;37.592;2023-01-28T06:55:00;100102.88;;;-2.97;100.00
35443;BME280;21561;55.654;37.592;2023-01-28T06:57:29;100104.19;;;-2.89;100.00
35443;BME280;21561;55.654;37.592;2023-01-28T06:59:56;100108.44;;;-2.88;100.00
35443;BME280;21561;55.654;37.592;2023-01-28T07:02:23;100113.88;;;-2.81;100.00
35443;BME280;21561;55.654;37.592;2023-01-28T07:04:53;100112.13;;;-2.82;100.00
35443;BME280;21561;55.654;37.592;2023-01-28T07:07:20;100113.53;;;-2.88;100.00
35443;BME280;21561;55.654;37.592;2023-01-28T07:09:46;100112.94;;;-2.83;100.00
35443;BME280;21561;55.654;37.592;2023-01-28T07:12:13;100119.28;;;-2.75;100.00
35443;BME280;21561;55.654;37.592;2023-01-28T07:14:41;100117.00;;;-2.71;100.00
35443;BME280;21561;55.654;37.592;2023-01-28T07:17:07;100121.19;;;-2.71;100.00
35443;BME280;21561;55.654;37.592;2023-01-28T07:19:34;100112.59;;;-2.73;100.00
35443;BME280;21561;55.654;37.592;2023-01-28T07:22:01;100118.97;;;-2.81;100.00
35443;BME280;21561;55.654;37.592;2023-01-28T07:24:29;100117.75;;;-2.88;100.00
35443;BME280;21561;55.654;37.592;2023-01-28T07:26:56;100121.06;;;-2.89;100.00
35443;BME280;21561;55.654;37.592;2023-01-28T07:29:23;100124.94;;;-2.96;100.00
35443;BME280;21561;55.654;37.592;2023-01-28T07:31:50;100123.38;;;-2.94;100.00
35443;BME280;21561;55.654;37.592;2023-01-28T07:34:17;100131.94;;;-2.92;100.00
35443;BME280;21561;55.654;37.592;2023-01-28T07:36:44;100121.97;;;-2.89;100.00
35443;BME280;21561;55.654;37.592;2023-01-28T07:39:11;100118.53;;;-2.89;100.00
35443;BME280;21561;55.654;37.592;2023-01-28T07:41:37;100119.41;;;-2.89;100.00
35443;BME280;21561;55.654;37.592;2023-01-28T07:44:04;100121.97;;;-2.89;100.00
35443;BME280;21561;55.654;37.592;2023-01-28T07:46:31;100110.84;;;-2.91;100.00
35443;BME280;21561;55.654;37.592;2023-01-28T07:48:58;100109.88;;;-2.93;100.00
35443;BME280;21561;55.654;37.592;2023-01-28T07:51:25;100108.13;;;-2.94;100.00
35443;BME280;21561;55.654;37.592;2023-01-28T07:53:52;100109.09;;;-2.92;100.00
35443;BME280;21561;55.654;37.592;2023-01-28T07:56:19;100115.94;;;-2.91;100.00
35443;BME280;21561;55.654;37.592;2023-01-28T07:58:49;100115.28;;;-2.86;100.00
35443;BME280;21561;55.654;37.592;2023-01-28T08:01:16;100110.03;;;-2.90;100.00
35443;BME280;21561;55.654;37.592;2023-01-28T08:03:44;100115.84;;;-2.92;100.00
35443;BME280;21561;55.654;37.592;2023-01-28T08:06:10;100114.94;;;-2.93;100.00
35443;BME280;21561;55.654;37.592;2023-01-28T08:08:37;100112.50;;;-2.91;100.00
35443;BME280;21561;55.654;37.592;2023-01-28T08:11:08;100116.16;;;-2.86;100.00
35443;BME280;21561;55.654;37.592;2023-01-28T08:13:36;100115.28;;;-2.86;100.00
35443;BME280;21561;55.654;37.592;2023-01-28T08:16:03;100118.59;;;-2.88;100.00
35443;BME280;21561;55.654;37.592;2023-01-28T08:18:31;100112.47;;;-2.76;100.00
35443;BME280;21561;55.654;37.592;2023-01-28T08:20:58;100119.09;;;-2.78;100.00
35443;BME280;21561;55.654;37.592;2023-01-28T08:23:25;100115.16;;;-2.73;100.00
35443;BME280;21561;55.654;37.592;2023-01-28T08:25:53;100111.19;;;-2.68;100.00
35443;BME280;21561;55.654;37.592;2023-01-28T08:28:20;100112.94;;;-2.67;100.00
35443;BME280;21561;55.654;37.592;2023-01-28T08:30:47;100114.84;;;-2.63;100.00
35443;BME280;21561;55.654;37.592;2023-01-28T08:33:15;100118.34;;;-2.61;99.86
35443;BME280;21561;55.654;37.592;2023-01-28T08:35:43;100113.34;;;-2.59;100.00
35443;BME280;21561;55.654;37.592;2023-01-28T08:38:12;100118.81;;;-2.52;100.00
35443;BME280;21561;55.654;37.592;2023-01-28T08:40:40;100118.13;;;-2.49;99.16
35443;BME280;21561;55.654;37.592;2023-01-28T08:43:08;100112.31;;;-2.46;100.00
35443;BME280;21561;55.654;37.592;2023-01-28T08:45:35;100111.28;;;-2.50;99.29
35443;BME280;21561;55.654;37.592;2023-01-28T08:48:06;100114.16;;;-2.44;99.10
35443;BME280;21561;55.654;37.592;2023-01-28T08:50:37;100112.16;;;-2.50;98.29
35443;BME280;21561;55.654;37.592;2023-01-28T08:53:08;100109.56;;;-2.51;98.63
35443;BME280;21561;55.654;37.592;2023-01-28T08:55:35;100107.63;;;-2.55;97.92
35443;BME280;21561;55.654;37.592;2023-01-28T08:58:04;100107.47;;;-2.58;97.37
35443;BME280;21561;55.654;37.592;2023-01-28T09:00:32;100106.28;;;-2.65;97.65
35443;BME280;21561;55.654;37.592;2023-01-28T09:03:00;100102.94;;;-2.64;98.46
35443;BME280;21561;55.654;37.592;2023-01-28T09:05:30;100104.03;;;-2.59;98.20
35443;BME280;21561;55.654;37.592;2023-01-28T09:08:06;100100.44;;;-2.47;97.84
35443;BME280;21561;55.654;37.592;2023-01-28T09:10:34;100103.75;;;-2.48;98.15
35443;BME280;21561;55.654;37.592;2023-01-28T09:13:13;100101.94;;;-2.35;97.91
35443;BME280;21561;55.654;37.592;2023-01-28T09:15:41;100099.13;;;-2.39;97.36
35443;BME280;21561;55.654;37.592;2023-01-28T09:18:08;100091.03;;;-2.32;98.98
35443;BME280;21561;55.654;37.592;2023-01-28T09:20:36;100090.88;;;-2.35;97.97
35443;BME280;21561;55.654;37.592;2023-01-28T09:23:03;100083.88;;;-2.39;97.25
35443;BME280;21561;55.654;37.592;2023-01-28T09:25:31;100092.38;;;-2.39;97.50
35443;BME280;21561;55.654;37.592;2023-01-28T09:27:58;100089.06;;;-2.38;97.61
35443;BME280;21561;55.654;37.592;2023-01-28T09:30:24;100084.22;;;-2.33;97.49
35443;BME280;21561;55.654;37.592;2023-01-28T09:32:52;100088.50;;;-2.32;96.84
35443;BME280;21561;55.654;37.592;2023-01-28T09:35:20;100085.88;;;-2.34;96.54
35443;BME280;21561;55.654;37.592;2023-01-28T09:37:47;100085.78;;;-2.35;96.75
35443;BME280;21561;55.654;37.592;2023-01-28T09:40:50;100089.59;;;-2.27;97.09
35443;BME280;21561;55.654;37.592;2023-01-28T09:43:39;100085.16;;;-2.15;97.37
35443;BME280;21561;55.654;37.592;2023-01-28T09:46:13;100092.63;;;-2.18;97.29
35443;BME280;21561;55.654;37.592;2023-01-28T09:48:43;100081.75;;;-2.15;96.41
35443;BME280;21561;55.654;37.592;2023-01-28T09:53:54;100080.22;;;-2.12;96.15
35443;BME280;21561;55.654;37.592;2023-01-28T09:56:29;100076.88;;;-2.11;95.97
35443;BME280;21561;55.654;37.592;2023-01-28T09:59:18;100077.19;;;-2.04;96.40
35443;BME280;21561;55.654;37.592;2023-01-28T10:01:53;100079.56;;;-2.07;95.97
35443;BME280;21561;55.654;37.592;2023-01-28T10:09:39;100068.19;;;-1.98;94.45
35443;BME280;21561;55.654;37.592;2023-01-28T10:12:36;100073.66;;;-1.90;94.99
35443;BME280;21561;55.654;37.592;2023-01-28T10:17:52;100067.94;;;-1.86;93.82
35443;BME280;21561;55.654;37.592;2023-01-28T10:20:42;100061.56;;;-1.94;94.01
35443;BME280;21561;55.654;37.592;2023-01-28T10:26:04;100060.41;;;-2.01;94.52
35443;BME280;21561;55.654;37.592;2023-01-28T10:28:38;100054.22;;;-2.06;94.54
35443;BME280;21561;55.654;37.592;2023-01-28T10:31:11;100055.38;;;-1.99;94.68
35443;BME280;21561;55.654;37.592;2023-01-28T10:33:39;100050.16;;;-2.02;94.87
35443;BME280;21561;55.654;37.592;2023-01-28T10:36:08;100055.38;;;-1.99;94.66
35443;BME280;21561;55.654;37.592;2023-01-28T10:38:35;100040.88;;;-1.84;94.89
35443;BME280;21561;55.654;37.592;2023-01-28T10:41:03;100045.13;;;-1.84;94.35
35443;BME280;21561;55.654;37.592;2023-01-28T10:43:36;100045.03;;;-1.86;93.58
35443;BME280;21561;55.654;37.592;2023-01-28T10:46:31;100040.09;;;-1.83;94.19
35443;BME280;21561;55.654;37.592;2023-01-28T10:49:12;100037.97;;;-1.92;95.18
35443;BME280;21561;55.654;37.592;2023-01-28T10:51:42;100037.84;;;-1.77;93.77
35443;BME280;21561;55.654;37.592;2023-01-28T10:54:23;100033.63;;;-1.58;94.56
35443;BME280;21561;55.654;37.592;2023-01-28T10:57:00;100040.47;;;-1.57;93.92
35443;BME280;21561;55.654;37.592;2023-01-28T10:59:33;100024.94;;;-1.63;92.43
35443;BME280;21561;55.654;37.592;2023-01-28T11:02:21;100022.44;;;-1.62;94.43
35443;BME280;21561;55.654;37.592;2023-01-28T11:05:13;100027.31;;;-1.66;92.65
35443;BME280;21561;55.654;37.592;2023-01-28T11:07:42;100025.19;;;-1.75;92.79
35443;BME280;21561;55.654;37.592;2023-01-28T11:12:56;100018.16;;;-1.81;91.85
35443;BME280;21561;55.654;37.592;2023-01-28T11:15:23;100018.50;;;-1.91;95.88
35443;BME280;21561;55.654;37.592;2023-01-28T11:17:55;100011.31;;;-1.82;94.76
35443;BME280;21561;55.654;37.592;2023-01-28T11:20:25;100010.16;;;-1.70;94.86
35443;BME280;21561;55.654;37.592;2023-01-28T11:22:53;100006.53;;;-1.58;94.43
35443;BME280;21561;55.654;37.592;2023-01-28T11:25:28;100010.59;;;-1.61;92.84
35443;BME280;21561;55.654;37.592;2023-01-28T11:27:57;100018.75;;;-1.68;92.38
35443;BME280;21561;55.654;37.592;2023-01-28T11:30:33;100010.16;;;-1.70;92.60
35443;BME280;21561;55.654;37.592;2023-01-28T11:35:36;100010.34;;;-1.84;94.16
35443;BME280;21561;55.654;37.592;2023-01-28T11:38:19;100012.56;;;-1.74;93.81
35443;BME280;21561;55.654;37.592;2023-01-28T11:40:50;100011.91;;;-1.69;95.57
35443;BME280;21561;55.654;37.592;2023-01-28T11:43:23;100000.19;;;-1.66;94.08
35443;BME280;21561;55.654;37.592;2023-01-28T11:51:01;100002.47;;;-1.72;92.74
35443;BME280;21561;55.654;37.592;2023-01-28T11:56:23;99988.13;;;-1.88;93.89
35443;BME280;21561;55.654;37.592;2023-01-28T12:17:37;99966.34;;;-1.83;94.28
35443;BME280;21561;55.654;37.592;2023-01-28T12:23:02;99961.53;;;-1.77;94.19
35443;BME280;21561;55.654;37.592;2023-01-28T12:28:46;99966.84;;;-1.72;94.45
35443;BME280;21561;55.654;37.592;2023-01-28T12:41:48;99956.34;;;-1.78;93.98
35443;BME280;21561;55.654;37.592;2023-01-28T12:44:25;99952.78;;;-1.82;94.01
35443;BME280;21561;55.654;37.592;2023-01-28T12:47:00;99951.06;;;-1.83;94.56
35443;BME280;21561;55.654;37.592;2023-01-28T12:49:31;99944.97;;;-1.86;94.78
35443;BME280;21561;55.654;37.592;2023-01-28T12:52:08;99946.84;;;-1.82;94.56
35443;BME280;21561;55.654;37.592;2023-01-28T12:54:45;99945.16;;;-1.82;94.92
35443;BME280;21561;55.654;37.592;2023-01-28T12:57:26;99949.47;;;-1.81;94.72
35443;BME280;21561;55.654;37.592;2023-01-28T13:00:02;99948.56;;;-1.81;94.59
35443;BME280;21561;55.654;37.592;2023-01-28T13:02:37;99947.63;;;-1.83;94.45
35443;BME280;21561;55.654;37.592;2023-01-28T13:05:15;99942.63;;;-1.82;94.52
35443;BME280;21561;55.654;37.592;2023-01-28T13:08:00;99947.72;;;-1.82;94.83
35443;BME280;21561;55.654;37.592;2023-01-28T13:10:42;99947.84;;;-1.97;94.91
35443;BME280;21561;55.654;37.592;2023-01-28T13:15:43;99943.63;;;-1.96;95.20
35443;BME280;21561;55.654;37.592;2023-01-28T13:18:30;99946.59;;;-1.87;95.27
35443;BME280;21561;55.654;37.592;2023-01-28T13:21:03;99939.56;;;-1.93;95.30
35443;BME280;21561;55.654;37.592;2023-01-28T13:23:39;99943.94;;;-1.90;95.42
35443;BME280;21561;55.654;37.592;2023-01-28T13:26:36;99938.19;;;-1.86;95.48
35443;BME280;21561;55.654;37.592;2023-01-28T13:29:18;99942.19;;;-1.91;95.27
35443;BME280;21561;55.654;37.592;2023-01-28T13:31:47;99947.84;;;-1.97;95.15
35443;BME280;21561;55.654;37.592;2023-01-28T13:34:36;99940.44;;;-1.92;95.40
35443;BME280;21561;55.654;37.592;2023-01-28T13:39:57;99939.88;;;-2.04;95.53
35443;BME280;21561;55.654;37.592;2023-01-28T13:42:27;99942.25;;;-2.07;95.73
35443;BME280;21561;55.654;37.592;2023-01-28T13:45:07;99943.03;;;-2.08;95.70
35443;BME280;21561;55.654;37.592;2023-01-28T13:47:36;99938.63;;;-2.13;95.91
35443;BME280;21561;55.654;37.592;2023-01-28T13:50:10;99936.94;;;-2.12;96.06
35443;BME280;21561;55.654;37.592;2023-01-28T13:53:06;99931.28;;;-2.06;96.53
35443;BME280;21561;55.654;37.592;2023-01-28T13:55:41;99932.25;;;-2.04;96.85
35443;BME280;21561;55.654;37.592;2023-01-28T14:07:07;99920.03;;;-2.12;96.42
35443;BME280;21561;55.654;37.592;2023-01-28T14:12:50;99909.88;;;-2.12;96.31
35443;BME280;21561;55.654;37.592;2023-01-28T14:20:52;99911.16;;;-2.20;96.85
35443;BME280;21561;55.654;37.592;2023-01-28T14:23:21;99898.53;;;-2.18;97.23
35443;BME280;21561;55.654;37.592;2023-01-28T14:31:39;99902.66;;;-2.20;97.10
35443;BME280;21561;55.654;37.592;2023-01-28T14:34:22;99906.44;;;-2.12;96.98
35443;BME280;21561;55.654;37.592;2023-01-28T14:36:56;99901.06;;;-2.18;96.82
35443;BME280;21561;55.654;37.592;2023-01-28T14:39:25;99898.44;;;-2.20;96.92
35443;BME280;21561;55.654;37.592;2023-01-28T14:41:55;99901.78;;;-2.21;97.04
35443;BME280;21561;55.654;37.592;2023-01-28T14:44:31;99898.59;;;-2.17;97.07
35443;BME280;21561;55.654;37.592;2023-01-28T14:58:50;99898.28;;;-2.23;97.33
35443;BME280;21561;55.654;37.592;2023-01-28T15:01:24;99892.91;;;-2.29;97.71
35443;BME280;21561;55.654;37.592;2023-01-28T15:03:52;99892.75;;;-2.32;97.98
35443;BME280;21561;55.654;37.592;2023-01-28T15:06:24;99895.47;;;-2.29;97.84